Saint Louis, Missouri
Traffic Map
Current Weather Conditions
Saint Louis, Missouri
Clear
Clear
20°
Feels Like: 20°
Wind Chill: 20° Ceiling: Unl
Heat Index: 20° Visibility: 10mi
Dew Point: 16° Wind: 10mph
Humidity: 76% Direction: 330° (NNW)
Pressure: 30.05in Gusts: 0mph
Raw Report DataKCPS 281153Z 33009KT 10SM CLR 20/16 A3005 RMK AO2 SLP172 T02000156 10228 20200 53015
Traffic Incident Summary
Active as of:
Severity:
Category:
InformationThere was an issue retrieving the traffic information for this location. Please try a different location or try again shortly.
Advertisements
Track Severe Weather on mobile